Palo Alto Battlefield Nation, Texas
Current Conditions -  °F | °C
As of 12:53 PM on Tuesday 27 Jan 2015 (Local Time) from KBRO Reporting Station
Clear Clear  
Wind Chill: 77°   Ceiling: Unl
Heat Index: 78°   Visibility: 10mi
Dew Point: 41°   Wind: 7mph
Humidity: 28%   Direction: NA
Pressure: 30.21"   Gusts: NA
Location:  26.0002°N, 97.5729°W
Report Text: KBRO 271853Z VRB06KT 10SM CLR 25/05 A3021 RMK AO2 SLP227 T02500050
Loading
Personal Weather Stations






























Interactive Weather Map New forecast layout! Learn more

10-Day Weather Forecast

Advertisements
Track Severe Weather on mobile